createdAt,value
2018-09-03T00:01:17.714Z,20.51
2018-09-03T00:03:44.064Z,20.50
2018-09-03T00:06:10.379Z,20.49
2018-09-03T00:08:36.738Z,20.45
2018-09-03T00:11:03.057Z,20.42
2018-09-03T00:13:29.416Z,20.43
2018-09-03T00:15:55.743Z,20.42
2018-09-03T00:18:22.052Z,20.35
2018-09-03T00:20:48.383Z,20.29
2018-09-03T00:23:14.724Z,20.29
2018-09-03T00:25:41.090Z,20.27
2018-09-03T00:28:07.410Z,20.28
2018-09-03T00:30:33.823Z,20.29
2018-09-03T00:33:00.115Z,20.27
2018-09-03T00:35:28.157Z,20.23
2018-09-03T00:37:54.533Z,20.16
2018-09-03T00:40:20.855Z,20.11
2018-09-03T00:42:47.201Z,20.10
2018-09-03T00:45:13.530Z,20.13
2018-09-03T00:47:39.910Z,20.17
2018-09-03T00:50:06.227Z,20.21
2018-09-03T00:52:32.560Z,20.19
2018-09-03T00:54:58.873Z,20.21
2018-09-03T00:57:25.195Z,20.21
2018-09-03T00:59:51.513Z,20.22
2018-09-03T01:02:17.836Z,20.21
2018-09-03T01:04:44.147Z,20.22
2018-09-03T01:07:10.470Z,20.23
2018-09-03T01:09:36.783Z,20.21
2018-09-03T01:12:03.101Z,20.15
2018-09-03T01:14:29.413Z,20.12
2018-09-03T01:16:55.736Z,20.12
2018-09-03T01:19:22.090Z,20.19
2018-09-03T01:21:48.430Z,20.22
2018-09-03T01:24:14.754Z,20.25
2018-09-03T01:26:41.070Z,20.37
2018-09-03T01:29:07.385Z,20.44
2018-09-03T01:31:33.754Z,20.44
2018-09-03T01:34:00.067Z,20.51
2018-09-03T01:36:26.397Z,20.53
2018-09-03T01:38:52.755Z,20.49
2018-09-03T01:41:19.081Z,20.46
2018-09-03T01:43:45.402Z,20.41
2018-09-03T01:46:11.748Z,20.33
2018-09-03T01:48:38.065Z,20.29
2018-09-03T01:51:04.382Z,20.25
2018-09-03T01:53:30.716Z,20.21
2018-09-03T01:55:57.030Z,20.15
2018-09-03T01:58:23.345Z,20.13
2018-09-03T02:00:49.664Z,20.12
2018-09-03T02:03:15.976Z,20.12
2018-09-03T02:05:42.288Z,20.12
2018-09-03T02:08:08.636Z,20.12
2018-09-03T02:10:34.966Z,20.10
2018-09-03T02:13:01.301Z,20.09
2018-09-03T02:15:27.673Z,20.12
2018-09-03T02:17:54.020Z,20.11
2018-09-03T02:20:20.388Z,20.07
2018-09-03T02:22:46.735Z,20.05
2018-09-03T02:25:13.058Z,20.05
2018-09-03T02:27:39.395Z,20.03
2018-09-03T02:30:05.760Z,20.02
2018-09-03T02:32:32.086Z,20.01
2018-09-03T02:34:58.444Z,20.01
2018-09-03T02:37:24.791Z,20.00
2018-09-03T02:39:51.158Z,19.98
2018-09-03T02:42:17.513Z,19.94
2018-09-03T02:44:43.833Z,19.91
2018-09-03T02:47:10.184Z,19.93
2018-09-03T02:49:36.504Z,19.93
2018-09-03T02:52:02.868Z,19.92
2018-09-03T02:54:29.189Z,19.92
2018-09-03T02:56:55.560Z,19.90
2018-09-03T02:59:21.872Z,19.87
2018-09-03T03:01:48.191Z,19.84
2018-09-03T03:04:14.508Z,19.80
2018-09-03T03:06:40.865Z,19.73
2018-09-03T03:09:07.187Z,19.71
2018-09-03T03:11:33.549Z,19.75
2018-09-03T03:13:59.818Z,19.77
2018-09-03T03:16:26.131Z,19.81
2018-09-03T03:18:52.452Z,19.83
2018-09-03T03:21:18.763Z,19.83
2018-09-03T03:23:45.076Z,19.83
2018-09-03T03:26:11.435Z,19.81
2018-09-03T03:28:37.752Z,19.82
2018-09-03T03:31:04.063Z,19.86
2018-09-03T03:33:30.371Z,19.84
2018-09-03T03:35:56.693Z,19.87
2018-09-03T03:38:23.015Z,19.89
2018-09-03T03:40:49.353Z,19.91
2018-09-03T03:43:15.669Z,19.91
2018-09-03T03:45:41.975Z,19.88
2018-09-03T03:48:08.311Z,19.83
2018-09-03T03:50:34.632Z,19.79
2018-09-03T03:53:00.959Z,19.77
2018-09-03T03:55:27.271Z,19.78
2018-09-03T03:57:53.598Z,19.77
2018-09-03T04:00:19.922Z,19.73
2018-09-03T04:02:46.238Z,19.76
2018-09-03T04:05:12.557Z,19.79
2018-09-03T04:07:38.891Z,19.81
2018-09-03T04:10:05.226Z,19.94
2018-09-03T04:12:31.546Z,20.01
2018-09-03T04:14:57.868Z,20.06
2018-09-03T04:17:24.200Z,20.10
2018-09-03T04:19:50.523Z,20.14
2018-09-03T04:22:16.849Z,20.20
2018-09-03T04:24:43.201Z,20.24
2018-09-03T04:27:09.520Z,20.29
2018-09-03T04:29:35.851Z,20.32
2018-09-03T04:32:02.179Z,20.40
2018-09-03T04:34:28.494Z,20.48
2018-09-03T04:36:54.820Z,20.39
2018-09-03T04:39:21.173Z,20.34
2018-09-03T04:41:47.514Z,20.35
2018-09-03T04:44:13.833Z,20.36
2018-09-03T04:46:40.204Z,20.36
2018-09-03T04:49:06.519Z,20.59
2018-09-03T04:51:32.890Z,20.67
2018-09-03T04:53:59.214Z,20.84
2018-09-03T04:56:25.536Z,20.95
2018-09-03T04:58:51.851Z,20.82
2018-09-03T05:01:18.183Z,20.69
2018-09-03T05:03:44.522Z,20.66
2018-09-03T05:06:10.903Z,20.66
2018-09-03T05:08:37.174Z,20.64
2018-09-03T05:11:03.497Z,20.68
2018-09-03T05:13:29.827Z,20.76
2018-09-03T05:15:56.151Z,20.77
2018-09-03T05:18:22.488Z,20.89
2018-09-03T05:20:48.838Z,21.14
2018-09-03T05:23:15.174Z,21.47
2018-09-03T05:25:41.500Z,21.80
2018-09-03T05:28:07.842Z,22.01
2018-09-03T05:30:34.180Z,22.23
2018-09-03T05:33:00.517Z,22.38
2018-09-03T05:35:26.884Z,22.63
2018-09-03T05:37:53.170Z,22.63
2018-09-03T05:40:19.494Z,22.69
2018-09-03T05:42:45.820Z,22.54
2018-09-03T05:45:12.196Z,22.34
2018-09-03T05:47:38.480Z,22.40
2018-09-03T05:50:04.815Z,22.31
2018-09-03T05:52:31.119Z,22.29
2018-09-03T05:54:57.466Z,22.33
2018-09-03T05:57:23.795Z,22.40
2018-09-03T05:59:50.119Z,22.49
2018-09-03T06:02:16.461Z,22.66
2018-09-03T06:04:42.778Z,22.84
2018-09-03T06:07:09.131Z,22.86
2018-09-03T06:09:35.420Z,23.09
2018-09-03T06:12:01.732Z,23.17
2018-09-03T06:14:28.076Z,23.25
2018-09-03T06:16:54.382Z,23.17
2018-09-03T06:19:20.729Z,23.01
2018-09-03T06:21:47.061Z,23.05
2018-09-03T06:24:13.446Z,23.06
2018-09-03T06:26:39.814Z,23.07
2018-09-03T06:29:06.106Z,23.15
2018-09-03T06:31:32.435Z,23.10
2018-09-03T06:33:58.769Z,23.14
2018-09-03T06:36:25.101Z,23.27
2018-09-03T06:38:51.449Z,23.28
2018-09-03T06:41:17.773Z,23.43
2018-09-03T06:43:44.104Z,23.71
2018-09-03T06:46:10.421Z,24.35
2018-09-03T06:48:36.747Z,25.02
2018-09-03T06:51:03.066Z,25.52
2018-09-03T06:53:29.453Z,25.38
2018-09-03T06:55:55.728Z,25.10
2018-09-03T06:58:22.056Z,25.08
2018-09-03T07:00:48.404Z,25.18
2018-09-03T07:03:14.739Z,25.06
2018-09-03T07:05:41.076Z,25.60
2018-09-03T07:08:07.400Z,26.17
2018-09-03T07:10:33.731Z,26.23
2018-09-03T07:13:00.093Z,26.17
2018-09-03T07:15:26.430Z,26.02
2018-09-03T07:17:52.752Z,25.84
2018-09-03T07:20:19.131Z,25.93
2018-09-03T07:22:45.410Z,25.92
2018-09-03T07:25:11.741Z,26.53
2018-09-03T07:27:38.074Z,26.52
2018-09-03T07:30:04.394Z,26.21
2018-09-03T07:32:30.720Z,26.07
2018-09-03T07:34:57.057Z,26.08
2018-09-03T07:37:23.457Z,26.05
2018-09-03T07:39:49.803Z,26.01
2018-09-03T07:42:16.118Z,25.85
2018-09-03T07:44:42.441Z,26.00
2018-09-03T07:47:08.770Z,26.11
2018-09-03T07:49:35.098Z,26.14
2018-09-03T07:52:01.428Z,26.06
2018-09-03T07:54:27.822Z,26.64
2018-09-03T07:56:54.136Z,27.04
2018-09-03T07:59:20.465Z,27.09
2018-09-03T08:01:46.783Z,27.73
2018-09-03T08:04:13.139Z,27.39
2018-09-03T08:06:39.430Z,27.07
2018-09-03T08:09:05.755Z,26.82
2018-09-03T08:11:32.083Z,27.02
2018-09-03T08:13:58.391Z,27.05
2018-09-03T08:16:24.705Z,26.98
2018-09-03T08:18:51.055Z,27.28
2018-09-03T08:21:17.382Z,28.06
2018-09-03T08:23:43.710Z,28.70
2018-09-03T08:26:10.088Z,28.99
2018-09-03T08:28:36.412Z,29.44
2018-09-03T08:31:02.793Z,29.92
2018-09-03T08:33:29.139Z,29.97
2018-09-03T08:35:55.479Z,29.86
2018-09-03T08:38:21.825Z,29.39
2018-09-03T08:40:48.160Z,29.45
2018-09-03T08:43:14.487Z,29.86
2018-09-03T08:45:40.805Z,30.16
2018-09-03T08:48:07.150Z,30.54
2018-09-03T08:50:33.463Z,30.57
2018-09-03T08:52:59.799Z,30.58
2018-09-03T08:55:26.128Z,30.43
2018-09-03T08:57:52.451Z,30.79
2018-09-03T09:00:18.765Z,30.99
2018-09-03T09:02:45.105Z,30.80
2018-09-03T09:05:11.428Z,30.98
2018-09-03T09:07:37.778Z,30.95
2018-09-03T09:10:04.122Z,30.73
2018-09-03T09:12:30.435Z,30.86
2018-09-03T09:14:56.748Z,30.55
2018-09-03T09:17:23.080Z,30.79
2018-09-03T09:19:49.392Z,31.42
2018-09-03T09:22:15.714Z,31.97
2018-09-03T09:24:42.043Z,31.67
2018-09-03T09:27:08.395Z,31.88
2018-09-03T09:29:34.713Z,31.96
2018-09-03T09:32:01.024Z,31.44
2018-09-03T09:34:27.332Z,31.63
2018-09-03T09:36:53.666Z,32.14
2018-09-03T09:39:19.968Z,31.99
2018-09-03T09:41:46.276Z,32.02
2018-09-03T09:44:12.592Z,32.04
2018-09-03T09:46:38.903Z,31.94
2018-09-03T09:49:05.239Z,32.22
2018-09-03T09:51:31.560Z,32.24
2018-09-03T09:53:57.864Z,32.36
2018-09-03T09:56:24.194Z,32.77
2018-09-03T09:58:50.504Z,32.51
2018-09-03T10:01:16.821Z,32.68
2018-09-03T10:03:43.146Z,32.49
2018-09-03T10:06:09.460Z,31.89
2018-09-03T10:08:35.776Z,32.07
2018-09-03T10:11:02.102Z,32.25
2018-09-03T10:13:28.437Z,32.71
2018-09-03T10:15:54.760Z,33.30
2018-09-03T10:18:21.072Z,33.22
2018-09-03T10:20:47.466Z,32.81
2018-09-03T10:23:13.750Z,33.29
2018-09-03T10:25:40.101Z,33.22
2018-09-03T10:28:06.413Z,33.50
2018-09-03T10:30:32.723Z,33.39
2018-09-03T10:32:59.050Z,33.13
2018-09-03T10:35:25.360Z,33.23
2018-09-03T10:37:51.688Z,33.56
2018-09-03T10:40:18.015Z,33.70
2018-09-03T10:42:44.347Z,32.94
2018-09-03T10:45:10.668Z,31.84
2018-09-03T10:47:37.061Z,31.45
2018-09-03T10:50:03.320Z,30.86
2018-09-03T10:52:29.629Z,30.73
2018-09-03T10:54:55.984Z,30.54
2018-09-03T10:57:22.319Z,30.39
2018-09-03T10:59:48.644Z,30.45
2018-09-03T11:02:14.960Z,30.32
2018-09-03T11:04:41.289Z,30.07
2018-09-03T11:07:07.604Z,29.88
2018-09-03T11:09:33.912Z,29.89
2018-09-03T11:12:00.228Z,30.01
2018-09-03T11:14:26.549Z,29.93
2018-09-03T11:16:52.875Z,29.70
2018-09-03T11:19:19.188Z,29.65
2018-09-03T11:21:45.513Z,29.53
2018-09-03T11:24:11.820Z,29.54
2018-09-03T11:26:38.198Z,29.67
2018-09-03T11:29:04.511Z,29.88
2018-09-03T11:31:30.835Z,30.00
2018-09-03T11:33:57.170Z,30.12
2018-09-03T11:36:23.495Z,30.20
2018-09-03T11:38:49.818Z,29.99
2018-09-03T11:41:16.127Z,29.98
2018-09-03T11:43:42.438Z,29.88
2018-09-03T11:46:08.747Z,29.83
2018-09-03T11:48:35.059Z,29.62
2018-09-03T11:51:01.374Z,29.52
2018-09-03T11:53:27.686Z,29.56
2018-09-03T11:55:54.000Z,29.49
2018-09-03T11:58:20.328Z,29.35
2018-09-03T12:00:46.660Z,29.11
2018-09-03T12:03:12.967Z,28.99
2018-09-03T12:05:39.294Z,28.21
2018-09-03T12:08:05.621Z,27.47
2018-09-03T12:10:31.931Z,27.05
2018-09-03T12:12:58.259Z,26.76
2018-09-03T12:15:24.591Z,26.18
2018-09-03T12:17:50.932Z,25.76
2018-09-03T12:20:17.254Z,25.39
2018-09-03T12:22:43.586Z,25.09
2018-09-03T12:25:09.915Z,25.06
2018-09-03T12:27:36.296Z,25.16
2018-09-03T12:30:05.828Z,25.16
2018-09-03T12:32:32.173Z,25.08
2018-09-03T12:34:58.526Z,25.02
2018-09-03T12:37:24.851Z,24.78
2018-09-03T12:39:51.215Z,23.84
2018-09-03T12:42:17.540Z,21.83
2018-09-03T12:44:43.918Z,20.44
2018-09-03T12:47:10.244Z,21.20
2018-09-03T12:49:36.571Z,22.01
2018-09-03T12:52:02.901Z,22.46
2018-09-03T12:54:29.282Z,22.70
2018-09-03T12:56:55.654Z,21.99
2018-09-03T12:59:21.985Z,21.26
2018-09-03T13:01:48.327Z,20.85
2018-09-03T13:04:14.709Z,20.80
2018-09-03T13:06:40.979Z,20.92
2018-09-03T13:09:07.301Z,20.99
2018-09-03T13:11:33.662Z,20.98
2018-09-03T13:13:59.984Z,21.08
2018-09-03T13:16:26.345Z,21.06
2018-09-03T13:18:52.687Z,21.29
2018-09-03T13:21:19.007Z,21.34
2018-09-03T13:23:45.359Z,21.43
2018-09-03T13:26:11.683Z,21.55
2018-09-03T13:28:38.061Z,21.10
2018-09-03T13:31:04.395Z,21.33
2018-09-03T13:33:30.726Z,21.07
2018-09-03T13:35:57.110Z,20.77
2018-09-03T13:38:23.364Z,20.60
2018-09-03T13:40:49.675Z,20.44
2018-09-03T13:43:16.013Z,20.64
2018-09-03T13:45:42.350Z,21.07
2018-09-03T13:48:08.747Z,21.28
2018-09-03T13:50:35.028Z,21.40
2018-09-03T13:53:01.353Z,21.52
2018-09-03T13:55:27.695Z,21.78
2018-09-03T13:57:54.032Z,22.18
2018-09-03T14:00:20.340Z,22.49
2018-09-03T14:02:46.673Z,22.70
2018-09-03T14:05:12.999Z,22.92
2018-09-03T14:07:39.306Z,23.13
2018-09-03T14:10:05.681Z,23.39
2018-09-03T14:12:31.953Z,23.71
2018-09-03T14:14:58.275Z,23.98
2018-09-03T14:17:24.590Z,24.23
2018-09-03T14:19:50.915Z,24.44
2018-09-03T14:22:17.247Z,24.64
2018-09-03T14:24:43.536Z,24.80
2018-09-03T14:27:09.858Z,24.92
2018-09-03T14:29:36.184Z,24.97
2018-09-03T14:32:02.529Z,25.10
2018-09-03T14:34:28.848Z,25.24
2018-09-03T14:36:55.187Z,25.30
2018-09-03T14:39:21.504Z,25.29
2018-09-03T14:41:47.828Z,25.36
2018-09-03T14:44:14.175Z,25.40
2018-09-03T14:46:40.519Z,25.46
2018-09-03T14:49:06.852Z,25.51
2018-09-03T14:51:33.236Z,25.55
2018-09-03T14:53:59.551Z,25.59
2018-09-03T14:56:25.903Z,25.65
2018-09-03T14:58:52.229Z,25.69
2018-09-03T15:01:18.641Z,25.73
2018-09-03T15:03:44.957Z,25.82
2018-09-03T15:06:11.287Z,25.94
2018-09-03T15:08:37.620Z,25.99
2018-09-03T15:11:03.944Z,25.98
2018-09-03T15:13:30.315Z,25.81
2018-09-03T15:15:56.624Z,25.64
2018-09-03T15:18:22.944Z,25.53
2018-09-03T15:20:49.312Z,25.47
2018-09-03T15:23:15.651Z,25.47
2018-09-03T15:25:41.929Z,25.45
2018-09-03T15:28:08.253Z,25.47
2018-09-03T15:30:34.591Z,25.49
2018-09-03T15:33:00.904Z,25.45
2018-09-03T15:35:27.241Z,25.44
2018-09-03T15:37:53.560Z,25.45
2018-09-03T15:40:19.888Z,25.33
2018-09-03T15:42:46.235Z,25.25
2018-09-03T15:45:12.561Z,25.22
2018-09-03T15:47:38.893Z,25.23
2018-09-03T15:50:05.249Z,25.23
2018-09-03T15:52:31.575Z,25.23
2018-09-03T15:54:57.888Z,25.20
2018-09-03T15:57:24.229Z,25.17
2018-09-03T15:59:50.559Z,25.19
2018-09-03T16:02:16.887Z,25.23
2018-09-03T16:04:43.214Z,25.20
2018-09-03T16:07:09.538Z,25.16
2018-09-03T16:09:35.863Z,25.07
2018-09-03T16:12:02.194Z,25.01
2018-09-03T16:14:28.523Z,24.96
2018-09-03T16:16:54.852Z,24.93
2018-09-03T16:19:21.199Z,24.69
2018-09-03T16:21:47.508Z,24.64
2018-09-03T16:24:13.856Z,24.53
2018-09-03T16:26:40.168Z,24.51
2018-09-03T16:29:06.492Z,24.45
2018-09-03T16:31:32.819Z,24.43
2018-09-03T16:33:59.146Z,24.39
2018-09-03T16:36:25.460Z,24.20
2018-09-03T16:38:51.869Z,23.92
2018-09-03T16:41:18.122Z,23.61
2018-09-03T16:43:44.432Z,23.48
2018-09-03T16:46:10.749Z,23.22
2018-09-03T16:48:37.079Z,23.03
2018-09-03T16:51:03.410Z,22.66
2018-09-03T16:53:29.760Z,22.63
2018-09-03T16:55:56.087Z,22.42
2018-09-03T16:58:22.454Z,22.55
2018-09-03T17:00:48.832Z,22.27
2018-09-03T17:03:15.143Z,21.88
2018-09-03T17:05:41.475Z,21.77
2018-09-03T17:08:07.934Z,21.78
2018-09-03T17:10:34.208Z,21.77
2018-09-03T17:13:00.534Z,21.60
2018-09-03T17:15:26.844Z,21.51
2018-09-03T17:17:53.156Z,21.52
2018-09-03T17:20:19.550Z,21.49
2018-09-03T17:22:45.786Z,21.46
2018-09-03T17:25:12.160Z,21.35
2018-09-03T17:27:38.480Z,21.35
2018-09-03T17:30:04.792Z,21.32
2018-09-03T17:32:31.134Z,21.28
2018-09-03T17:34:57.453Z,21.32
2018-09-03T17:37:23.777Z,21.56
2018-09-03T17:39:50.091Z,21.71
2018-09-03T17:42:16.426Z,21.87
2018-09-03T17:44:42.760Z,22.05
2018-09-03T17:47:09.086Z,22.06
2018-09-03T17:49:35.446Z,21.99
2018-09-03T17:52:01.771Z,21.96
2018-09-03T17:54:28.095Z,22.10
2018-09-03T17:56:54.432Z,22.18
2018-09-03T17:59:20.741Z,22.11
2018-09-03T18:01:47.069Z,22.08
2018-09-03T18:04:13.382Z,22.09
2018-09-03T18:06:39.710Z,21.99
2018-09-03T18:09:06.027Z,21.88
2018-09-03T18:11:32.389Z,21.88
2018-09-03T18:13:58.776Z,22.04
2018-09-03T18:16:25.193Z,22.12
2018-09-03T18:18:51.453Z,22.05
2018-09-03T18:21:17.777Z,22.14
2018-09-03T18:23:44.105Z,22.21
2018-09-03T18:26:10.417Z,22.31
2018-09-03T18:28:36.734Z,22.37
2018-09-03T18:31:04.714Z,22.35
2018-09-03T18:33:29.380Z,22.34
2018-09-03T18:35:55.730Z,22.48
2018-09-03T18:38:22.023Z,22.64
2018-09-03T18:40:48.352Z,22.65
2018-09-03T18:43:14.677Z,22.37
2018-09-03T18:45:41.012Z,22.14
2018-09-03T18:48:07.337Z,21.95
2018-09-03T18:50:33.651Z,21.94
2018-09-03T18:52:59.959Z,22.12
2018-09-03T18:55:26.288Z,22.31
2018-09-03T18:57:52.619Z,22.41
2018-09-03T19:00:18.961Z,22.54
2018-09-03T19:02:45.245Z,22.52
2018-09-03T19:05:11.555Z,22.44
2018-09-03T19:07:37.923Z,22.37
2018-09-03T19:10:04.247Z,22.32
2018-09-03T19:12:30.582Z,22.05
2018-09-03T19:14:56.895Z,22.08
2018-09-03T19:17:23.263Z,22.03
2018-09-03T19:19:49.572Z,21.97
2018-09-03T19:22:15.909Z,22.00
2018-09-03T19:24:42.221Z,21.91
2018-09-03T19:27:08.550Z,21.59
2018-09-03T19:29:34.879Z,21.40
2018-09-03T19:32:01.198Z,21.20
2018-09-03T19:34:27.531Z,20.71
2018-09-03T19:36:53.881Z,20.36
2018-09-03T19:39:20.227Z,19.97
2018-09-03T19:41:46.577Z,19.99
2018-09-03T19:44:12.904Z,20.23
2018-09-03T19:46:39.216Z,20.40
2018-09-03T19:49:05.531Z,20.48
2018-09-03T19:51:31.899Z,20.50
2018-09-03T19:53:58.228Z,20.60
2018-09-03T19:56:24.555Z,20.63
2018-09-03T19:58:50.927Z,20.52
2018-09-03T20:01:17.256Z,20.46
2018-09-03T20:03:43.626Z,20.43
2018-09-03T20:06:10.040Z,20.48
2018-09-03T20:08:36.305Z,20.48
2018-09-03T20:11:02.630Z,20.35
2018-09-03T20:13:28.951Z,20.09
2018-09-03T20:15:55.250Z,19.89
2018-09-03T20:18:21.566Z,19.60
2018-09-03T20:20:47.889Z,19.46
2018-09-03T20:23:14.262Z,19.40
2018-09-03T20:25:40.552Z,19.51
2018-09-03T20:28:06.880Z,19.42
2018-09-03T20:30:33.252Z,19.40
2018-09-03T20:32:59.514Z,19.37
2018-09-03T20:35:25.834Z,19.38
2018-09-03T20:37:52.139Z,19.49
2018-09-03T20:40:18.493Z,19.48
2018-09-03T20:42:44.858Z,19.40
2018-09-03T20:45:11.126Z,19.40
2018-09-03T20:47:37.455Z,19.34
2018-09-03T20:50:03.770Z,19.09
2018-09-03T20:52:30.085Z,18.88
2018-09-03T20:54:56.410Z,18.79
2018-09-03T20:57:22.743Z,18.69
2018-09-03T20:59:49.142Z,18.69
2018-09-03T21:02:15.475Z,18.58
2018-09-03T21:04:41.814Z,18.72
2018-09-03T21:07:08.140Z,18.74
2018-09-03T21:09:34.476Z,18.75
2018-09-03T21:12:00.822Z,18.76
2018-09-03T21:14:28.302Z,18.70
2018-09-03T21:16:54.607Z,18.84
2018-09-03T21:19:21.001Z,18.86
2018-09-03T21:21:49.821Z,18.78
2018-09-03T21:24:16.246Z,18.66
2018-09-03T21:26:42.601Z,18.55
2018-09-03T21:29:09.015Z,18.56
2018-09-03T21:31:35.385Z,18.63
2018-09-03T21:34:01.723Z,18.52
2018-09-03T21:36:28.069Z,18.40
2018-09-03T21:38:54.430Z,18.39
2018-09-03T21:41:20.748Z,18.56
2018-09-03T21:43:47.097Z,18.66
2018-09-03T21:46:13.414Z,18.58
2018-09-03T21:48:39.741Z,18.49
2018-09-03T21:51:06.059Z,18.60
2018-09-03T21:53:32.377Z,18.43
2018-09-03T21:55:58.699Z,18.40
2018-09-03T21:58:25.053Z,18.42
2018-09-03T22:00:51.382Z,18.56
2018-09-03T22:03:17.713Z,18.67
2018-09-03T22:05:44.032Z,18.60
2018-09-03T22:08:10.356Z,18.63
2018-09-03T22:10:36.669Z,18.52
2018-09-03T22:13:03.047Z,18.61
2018-09-03T22:15:29.355Z,18.57
2018-09-03T22:17:55.663Z,18.45
2018-09-03T22:20:21.985Z,18.47
2018-09-03T22:22:48.304Z,18.53
2018-09-03T22:25:14.676Z,18.43
2018-09-03T22:27:41.003Z,18.30
2018-09-03T22:30:07.359Z,18.25
2018-09-03T22:32:33.725Z,18.26
2018-09-03T22:35:00.081Z,18.42
2018-09-03T22:37:26.395Z,18.49
2018-09-03T22:39:52.759Z,18.58
2018-09-03T22:42:19.070Z,18.50
2018-09-03T22:44:45.391Z,18.43
2018-09-03T22:47:11.704Z,18.53
2018-09-03T22:49:38.090Z,18.65
2018-09-03T22:52:04.411Z,18.70
2018-09-03T22:54:30.735Z,18.66
2018-09-03T22:56:57.079Z,18.72
2018-09-03T22:59:23.427Z,18.63
2018-09-03T23:01:49.796Z,18.62
2018-09-03T23:04:16.179Z,18.56
2018-09-03T23:06:42.502Z,18.58
2018-09-03T23:09:08.832Z,18.68
2018-09-03T23:11:35.143Z,18.59
2018-09-03T23:14:01.495Z,18.45
2018-09-03T23:16:27.818Z,18.58
2018-09-03T23:18:54.169Z,18.50
2018-09-03T23:21:20.492Z,18.49
2018-09-03T23:23:46.837Z,18.44
2018-09-03T23:26:13.201Z,18.43
2018-09-03T23:28:39.554Z,18.50
2018-09-03T23:31:05.884Z,18.55
2018-09-03T23:33:32.202Z,18.59
2018-09-03T23:35:58.525Z,18.61
2018-09-03T23:38:24.853Z,18.62
2018-09-03T23:40:51.182Z,18.49
2018-09-03T23:43:17.543Z,18.63
2018-09-03T23:45:43.906Z,18.74
2018-09-03T23:48:10.194Z,18.59
2018-09-03T23:50:36.581Z,18.54
2018-09-03T23:53:02.925Z,18.65
2018-09-03T23:55:29.292Z,18.61
2018-09-03T23:57:55.642Z,18.52
